KCNY

Canyonlands Field Airport

Moab, Utah, USA
METAR KCNY 141253Z AUTO 00000KT 10SM CLR 21/02 A2996 RMK AO2 SLP077 T02110022
Observed Flight Rules
Aug-14 @ 12:53 UTC (48 minutes ago) Visual Flight Rules
Visibility Clouds
10 miles
  • Clear skies
Temperatures Readings
Current 21°C / 70°F
Dewpoint 2°C / 36°F
Humidity 29%
Altimeter 29.96" Hg
Pressure 1007.7 hPa
Elevation 1390
METAR KCNY 141253Z AUTO 00000KT 10SM CLR 21/02 A2996 RMK AO2 SLP077 T02110022
Observed Flight Rules
Aug-14 @ 12:53 UTC
(48 minutes ago)
VFR
Clouds
  • Clear skies
Temperature Dewpoint
21°C / 70°F 2°C / 36°F
Humidity Altimeter Pressure
29% 29.96" Hg 1007.7 hPa